SWR248Z LSZH-LIRN
Flight info
| Callsign | SWR248Z |
|---|---|
| Flight time | N/A |
| Altitude | 37000 |
| Route | VEBIT T53 GERSA N850 SOSON DCT ODINA DCT LOMED DCT EVULI DCT ERIKA |
| Aircraft | A320/M-SDE3FGHIRWY/LB1 |
Departure
| Time | 2026-05-07 18:28 |
|---|---|
| Airport | Zürich Airport (LSZH) |
Arrival
| Time | N/A |
|---|---|
| Airport | Naples International Airport (LIRN) |
| Time | Latitude | Longitude | Altitude | Speed | Heading |
|---|---|---|---|---|---|
| 2026-05-07 17:58 | 47.45435 | 8.55568 | 1403 ft | 0 kts | 186° |
| 2026-05-07 18:20 | 47.45441 | 8.55569 | 1397 ft | 4 kts | 186° |
| 2026-05-07 18:20 | 47.45468 | 8.55574 | 1397 ft | 4 kts | 192° |
| 2026-05-07 18:20 | 47.45494 | 8.55585 | 1400 ft | 4 kts | 205° |
| 2026-05-07 18:20 | 47.45514 | 8.55605 | 1405 ft | 4 kts | 242° |
| 2026-05-07 18:21 | 47.45517 | 8.55625 | 1405 ft | 1 kts | 276° |
| 2026-05-07 18:21 | 47.45517 | 8.55628 | 1405 ft | 1 kts | 276° |
| 2026-05-07 18:21 | 47.45517 | 8.55629 | 1405 ft | 0 kts | 276° |
| 2026-05-07 18:24 | 47.45518 | 8.55618 | 1406 ft | 4 kts | 275° |
| 2026-05-07 18:24 | 47.45521 | 8.55569 | 1397 ft | 9 kts | 275° |
| 2026-05-07 18:24 | 47.45525 | 8.55473 | 1397 ft | 10 kts | 270° |
| 2026-05-07 18:24 | 47.45525 | 8.55458 | 1399 ft | 1 kts | 270° |
| 2026-05-07 18:25 | 47.45501 | 8.55433 | 1400 ft | 7 kts | 208° |
| 2026-05-07 18:25 | 47.45448 | 8.55395 | 1398 ft | 11 kts | 205° |
| 2026-05-07 18:25 | 47.45378 | 8.55383 | 1400 ft | 9 kts | 158° |
| 2026-05-07 18:25 | 47.45310 | 8.55431 | 1397 ft | 11 kts | 155° |
| 2026-05-07 18:26 | 47.45247 | 8.55474 | 1399 ft | 10 kts | 154° |
| 2026-05-07 18:26 | 47.45153 | 8.55540 | 1405 ft | 17 kts | 154° |
| 2026-05-07 18:26 | 47.45055 | 8.55609 | 1404 ft | 15 kts | 154° |
| 2026-05-07 18:26 | 47.44969 | 8.55645 | 1396 ft | 11 kts | 199° |
| 2026-05-07 18:27 | 47.44930 | 8.55560 | 1403 ft | 9 kts | 242° |
| 2026-05-07 18:27 | 47.44901 | 8.55471 | 1397 ft | 11 kts | 251° |
| 2026-05-07 18:27 | 47.44943 | 8.55403 | 1403 ft | 9 kts | 335° |
| 2026-05-07 18:27 | 47.45104 | 8.55292 | 1398 ft | 58 kts | 335° |
| 2026-05-07 18:28 | 47.45658 | 8.54910 | 1400 ft | 118 kts | 335° |
| 2026-05-07 18:28 | 47.46555 | 8.54297 | 1501 ft | 153 kts | 335° |
| 2026-05-07 18:28 | 47.47460 | 8.53691 | 2099 ft | 147 kts | 336° |
| 2026-05-07 18:28 | 47.48484 | 8.52989 | 2288 ft | 180 kts | 334° |
| 2026-05-07 18:29 | 47.49647 | 8.52154 | 2885 ft | 192 kts | 335° |
| 2026-05-07 18:29 | 47.50876 | 8.51259 | 3116 ft | 208 kts | 334° |
| 2026-05-07 18:29 | 47.52204 | 8.50242 | 3445 ft | 218 kts | 326° |
| 2026-05-07 18:29 | 47.53260 | 8.48638 | 3956 ft | 221 kts | 301° |
| 2026-05-07 18:30 | 47.53761 | 8.46487 | 4451 ft | 224 kts | 275° |
| 2026-05-07 18:30 | 47.53587 | 8.44215 | 4943 ft | 226 kts | 251° |
| 2026-05-07 18:30 | 47.52921 | 8.42055 | 5169 ft | 240 kts | 244° |
| 2026-05-07 18:30 | 47.52042 | 8.39861 | 5299 ft | 256 kts | 229° |
| 2026-05-07 18:31 | 47.50662 | 8.38288 | 5459 ft | 248 kts | 204° |
| 2026-05-07 18:31 | 47.48940 | 8.37589 | 5902 ft | 266 kts | 191° |
| 2026-05-07 18:31 | 47.47094 | 8.37059 | 6695 ft | 272 kts | 191° |
| 2026-05-07 18:31 | 47.45288 | 8.36504 | 7261 ft | 258 kts | 194° |